createdAt,value
2022-08-05T00:00:52.861Z,0.00
2022-08-05T00:01:52.921Z,0.00
2022-08-05T00:02:52.870Z,0.00
2022-08-05T00:03:52.821Z,0.00
2022-08-05T00:04:55.872Z,0.00
2022-08-05T00:06:04.801Z,0.00
2022-08-05T00:06:53.793Z,0.00
2022-08-05T00:08:01.041Z,0.00
2022-08-05T00:08:52.951Z,0.00
2022-08-05T00:09:52.771Z,0.00
2022-08-05T00:10:52.819Z,0.00
2022-08-05T00:11:55.644Z,0.00
2022-08-05T00:12:56.802Z,0.00
2022-08-05T00:13:53.742Z,0.00
2022-08-05T00:14:52.724Z,0.00
2022-08-05T00:15:56.021Z,0.00
2022-08-05T00:16:54.025Z,0.00
2022-08-05T00:17:52.705Z,0.00
2022-08-05T00:18:52.695Z,0.00
2022-08-05T00:20:01.863Z,0.00
2022-08-05T00:20:53.705Z,0.00
2022-08-05T00:21:54.018Z,0.00
2022-08-05T00:22:57.476Z,0.00
2022-08-05T00:24:05.048Z,0.00
2022-08-05T00:24:55.048Z,0.00
2022-08-05T00:25:52.644Z,0.00
2022-08-05T00:26:53.131Z,0.00
2022-08-05T00:27:52.636Z,0.00
2022-08-05T00:28:52.631Z,0.00
2022-08-05T00:29:52.622Z,0.00
2022-08-05T00:30:53.725Z,0.00
2022-08-05T00:32:10.576Z,0.00
2022-08-05T00:32:53.597Z,0.00
2022-08-05T00:34:53.219Z,0.00
2022-08-05T00:35:06.310Z,0.00
2022-08-05T00:36:16.581Z,0.00
2022-08-05T00:37:11.939Z,0.00
2022-08-05T00:37:54.066Z,0.00
2022-08-05T00:38:52.722Z,0.00
2022-08-05T00:39:57.829Z,0.00
2022-08-05T00:40:52.531Z,0.00
2022-08-05T00:41:55.534Z,0.00
2022-08-05T00:42:52.526Z,0.00
2022-08-05T00:43:52.512Z,0.00
2022-08-05T00:44:52.504Z,0.00
2022-08-05T00:45:52.501Z,0.00
2022-08-05T00:46:54.159Z,0.00
2022-08-05T00:47:57.385Z,0.00
2022-08-05T00:48:53.541Z,0.00
2022-08-05T00:49:52.466Z,0.00
2022-08-05T00:50:52.465Z,0.00
2022-08-05T00:51:52.475Z,0.00
2022-08-05T00:52:53.380Z,0.00
2022-08-05T00:54:02.792Z,0.00
2022-08-05T00:54:53.438Z,0.00
2022-08-05T00:55:52.425Z,0.00
2022-08-05T00:56:52.442Z,0.00
2022-08-05T00:57:55.344Z,0.00
2022-08-05T00:58:52.406Z,0.00
2022-08-05T00:59:52.406Z,0.00
2022-08-05T01:00:52.455Z,0.00
2022-08-05T01:01:52.478Z,0.00
2022-08-05T01:02:52.378Z,0.00
2022-08-05T01:03:52.369Z,0.00
2022-08-05T01:04:52.375Z,0.00
2022-08-05T01:05:54.578Z,0.00
2022-08-05T01:06:52.403Z,0.00
2022-08-05T01:07:52.342Z,0.00
2022-08-05T01:08:53.338Z,0.00
2022-08-05T01:09:55.681Z,0.00
2022-08-05T01:10:52.842Z,0.00
2022-08-05T01:11:52.335Z,0.00
2022-08-05T01:12:54.341Z,0.00
2022-08-05T01:13:58.216Z,0.00
2022-08-05T01:14:53.294Z,0.00
2022-08-05T01:15:52.311Z,0.00
2022-08-05T01:16:52.443Z,0.00
2022-08-05T01:17:53.696Z,0.00
2022-08-05T01:18:56.396Z,0.00
2022-08-05T01:20:02.124Z,0.00
2022-08-05T01:20:53.252Z,0.00
2022-08-05T01:21:52.243Z,0.00
2022-08-05T01:22:52.250Z,0.00
2022-08-05T01:23:53.023Z,0.00
2022-08-05T01:24:52.223Z,0.00
2022-08-05T01:25:53.632Z,0.00
2022-08-05T01:26:52.206Z,0.00
2022-08-05T01:27:55.862Z,0.00
2022-08-05T01:28:52.187Z,0.00
2022-08-05T01:29:52.189Z,0.00
2022-08-05T01:30:53.929Z,0.00
2022-08-05T01:31:52.181Z,0.00
2022-08-05T01:32:52.160Z,0.00
2022-08-05T01:33:53.775Z,0.00
2022-08-05T01:34:52.143Z,0.00
2022-08-05T01:35:53.521Z,0.00
2022-08-05T01:36:52.145Z,0.00
2022-08-05T01:37:52.122Z,0.00
2022-08-05T01:38:52.113Z,0.00
2022-08-05T01:39:52.226Z,0.00
2022-08-05T01:40:52.103Z,0.00
2022-08-05T01:41:52.114Z,0.00
2022-08-05T01:42:52.089Z,0.00
2022-08-05T01:43:52.074Z,0.00
2022-08-05T01:44:54.137Z,0.00
2022-08-05T01:45:56.284Z,0.00
2022-08-05T01:46:52.087Z,0.00
2022-08-05T01:47:54.431Z,0.00
2022-08-05T01:48:52.043Z,0.00
2022-08-05T01:50:01.628Z,0.00
2022-08-05T01:50:53.032Z,0.00
2022-08-05T01:51:52.084Z,0.00
2022-08-05T01:52:52.013Z,0.00
2022-08-05T01:53:57.327Z,0.00
2022-08-05T01:54:53.016Z,0.00
2022-08-05T01:55:51.993Z,0.00
2022-08-05T01:58:11.544Z,0.00
2022-08-05T01:58:13.576Z,0.00
2022-08-05T01:58:52.985Z,0.00
2022-08-05T01:59:51.956Z,0.00
2022-08-05T02:00:51.955Z,0.00
2022-08-05T02:01:52.005Z,0.00
2022-08-05T02:02:54.986Z,0.00
2022-08-05T02:03:51.932Z,0.00
2022-08-05T02:04:51.931Z,0.00
2022-08-05T02:05:53.489Z,0.00
2022-08-05T02:06:52.930Z,0.00
2022-08-05T02:07:59.797Z,0.00
2022-08-05T02:08:58.306Z,0.00
2022-08-05T02:09:52.884Z,0.00
2022-08-05T02:10:51.960Z,0.00
2022-08-05T02:11:52.580Z,0.00
2022-08-05T02:12:51.868Z,0.00
2022-08-05T02:13:53.595Z,0.00
2022-08-05T02:14:51.853Z,0.00
2022-08-05T02:15:51.842Z,0.00
2022-08-05T02:16:52.172Z,0.00
2022-08-05T02:18:31.653Z,0.00
2022-08-05T02:18:52.821Z,0.00
2022-08-05T02:19:51.808Z,0.00
2022-08-05T02:20:51.807Z,0.00
2022-08-05T02:21:51.805Z,0.00
2022-08-05T02:22:51.792Z,0.00
2022-08-05T02:23:51.780Z,0.00
2022-08-05T02:24:52.167Z,0.00
2022-08-05T02:25:51.769Z,0.00
2022-08-05T02:26:51.903Z,0.00
2022-08-05T02:27:59.080Z,0.00
2022-08-05T02:28:52.753Z,0.00
2022-08-05T02:29:59.978Z,0.00
2022-08-05T02:30:54.719Z,0.00
2022-08-05T02:31:51.741Z,0.00
2022-08-05T02:32:51.718Z,0.00
2022-08-05T02:33:57.235Z,0.00
2022-08-05T02:34:54.503Z,0.00
2022-08-05T02:35:56.331Z,0.00
2022-08-05T02:36:52.714Z,0.00
2022-08-05T02:37:54.103Z,0.00
2022-08-05T02:38:53.201Z,0.00
2022-08-05T02:39:51.849Z,0.00
2022-08-05T02:40:51.665Z,0.00
2022-08-05T02:42:00.953Z,0.00
2022-08-05T02:42:54.034Z,0.00
2022-08-05T02:44:02.263Z,0.00
2022-08-05T02:44:52.633Z,0.00
2022-08-05T02:45:53.931Z,0.00
2022-08-05T02:46:59.740Z,0.00
2022-08-05T02:48:11.402Z,0.00
2022-08-05T02:48:52.603Z,0.00
2022-08-05T02:49:51.594Z,0.00
2022-08-05T02:50:51.589Z,0.00
2022-08-05T02:52:04.119Z,0.00
2022-08-05T02:52:52.567Z,0.00
2022-08-05T02:53:54.694Z,0.00
2022-08-05T02:54:52.343Z,0.00
2022-08-05T02:55:54.486Z,0.00
2022-08-05T02:56:52.559Z,0.00
2022-08-05T02:58:10.101Z,0.00
2022-08-05T02:58:52.626Z,0.00
2022-08-05T02:59:52.051Z,0.00
2022-08-05T03:00:51.583Z,0.00
2022-08-05T03:01:51.606Z,0.00
2022-08-05T03:02:51.499Z,0.00
2022-08-05T03:04:02.907Z,0.00
2022-08-05T03:04:53.085Z,0.00
2022-08-05T03:06:55.220Z,0.00
2022-08-05T03:06:59.261Z,0.00
2022-08-05T03:08:04.440Z,0.00
2022-08-05T03:08:52.470Z,0.00
2022-08-05T03:09:51.929Z,0.00
2022-08-05T03:11:53.611Z,0.00
2022-08-05T03:11:55.383Z,0.00
2022-08-05T03:12:52.433Z,0.00
2022-08-05T03:14:03.260Z,0.00
2022-08-05T03:14:52.402Z,0.00
2022-08-05T03:15:51.859Z,0.00
2022-08-05T03:16:53.396Z,0.00
2022-08-05T03:17:54.091Z,0.00
2022-08-05T03:18:51.380Z,0.00
2022-08-05T03:19:51.379Z,0.00
2022-08-05T03:20:51.364Z,0.00
2022-08-05T03:21:51.369Z,0.00
2022-08-05T03:22:51.346Z,0.00
2022-08-05T03:23:51.348Z,0.00
2022-08-05T03:24:52.145Z,0.00
2022-08-05T03:26:04.971Z,0.00
2022-08-05T03:26:52.334Z,0.00
2022-08-05T03:27:59.108Z,0.00
2022-08-05T03:28:52.304Z,0.00
2022-08-05T03:30:06.957Z,0.00
2022-08-05T03:30:52.319Z,0.00
2022-08-05T03:31:56.691Z,0.00
2022-08-05T03:32:52.263Z,0.00
2022-08-05T03:33:53.164Z,0.00
2022-08-05T03:34:51.661Z,0.00
2022-08-05T03:35:51.734Z,0.00
2022-08-05T03:36:51.247Z,0.00
2022-08-05T03:37:51.226Z,0.00
2022-08-05T03:38:53.429Z,0.00
2022-08-05T03:39:59.487Z,0.00
2022-08-05T03:40:52.289Z,0.00
2022-08-05T03:41:52.659Z,0.00
2022-08-05T03:42:51.773Z,0.00
2022-08-05T03:44:08.699Z,0.00
2022-08-05T03:44:52.167Z,0.00
2022-08-05T03:45:57.546Z,0.00
2022-08-05T03:46:52.169Z,0.00
2022-08-05T03:47:51.153Z,0.00
2022-08-05T03:48:51.141Z,0.00
2022-08-05T03:49:52.463Z,0.00
2022-08-05T03:50:51.122Z,0.00
2022-08-05T03:52:50.256Z,0.00
2022-08-05T03:55:50.632Z,0.00
2022-08-05T03:55:53.476Z,0.00
2022-08-05T03:56:03.748Z,0.00
2022-08-05T03:56:11.536Z,0.00
2022-08-05T03:56:52.158Z,0.00
2022-08-05T03:57:51.077Z,0.00
2022-08-05T03:58:51.270Z,0.00
2022-08-05T03:59:54.666Z,0.00
2022-08-05T04:00:51.423Z,0.00
2022-08-05T04:01:51.180Z,0.00
2022-08-05T04:02:57.660Z,0.00
2022-08-05T04:04:10.407Z,0.00
2022-08-05T04:04:52.013Z,0.00
2022-08-05T04:05:51.010Z,0.00
2022-08-05T04:06:51.400Z,0.00
2022-08-05T04:07:57.730Z,0.00
2022-08-05T04:08:51.985Z,0.00
2022-08-05T04:09:53.227Z,0.00
2022-08-05T04:10:50.966Z,0.00
2022-08-05T04:11:52.729Z,0.00
2022-08-05T04:12:50.967Z,0.00
2022-08-05T04:13:53.545Z,0.00
2022-08-05T04:14:50.940Z,0.00
2022-08-05T04:16:03.036Z,0.00
2022-08-05T04:16:51.945Z,0.00
2022-08-05T04:17:56.151Z,0.00
2022-08-05T04:18:54.489Z,0.00
2022-08-05T04:19:54.475Z,5.62
2022-08-05T04:20:51.893Z,5.62
2022-08-05T04:22:09.352Z,5.62
2022-08-05T04:22:51.901Z,5.62
2022-08-05T04:24:05.057Z,5.62
2022-08-05T04:24:52.257Z,11.25
2022-08-05T04:26:00.243Z,11.25
2022-08-05T04:26:51.839Z,11.25
2022-08-05T04:27:57.258Z,11.25
2022-08-05T04:28:52.250Z,16.88
2022-08-05T04:29:50.821Z,16.88
2022-08-05T04:30:50.818Z,16.88
2022-08-05T04:31:50.801Z,16.88
2022-08-05T04:32:50.813Z,16.88
2022-08-05T04:34:18.259Z,16.88
2022-08-05T04:34:51.780Z,11.25
2022-08-05T04:36:15.738Z,11.25
2022-08-05T04:36:51.765Z,11.25
2022-08-05T04:38:00.887Z,5.62
2022-08-05T04:38:52.114Z,5.62
2022-08-05T04:39:52.951Z,5.62
2022-08-05T04:40:51.058Z,5.62
2022-08-05T04:41:51.245Z,0.00
2022-08-05T04:42:50.738Z,0.00
2022-08-05T04:43:52.147Z,0.00
2022-08-05T04:44:50.706Z,0.00
2022-08-05T04:45:55.591Z,0.00
2022-08-05T04:46:50.690Z,0.00
2022-08-05T04:47:50.785Z,0.00
2022-08-05T04:48:51.711Z,0.00
2022-08-05T04:50:02.839Z,5.62
2022-08-05T04:51:01.459Z,5.62
2022-08-05T04:52:00.282Z,5.62
2022-08-05T04:52:51.666Z,5.62
2022-08-05T04:53:50.643Z,0.00
2022-08-05T04:54:50.859Z,0.00
2022-08-05T04:56:33.487Z,0.00
2022-08-05T04:56:51.617Z,0.00
2022-08-05T04:57:51.539Z,0.00
2022-08-05T04:58:50.605Z,0.00
2022-08-05T04:59:50.600Z,0.00
2022-08-05T05:00:51.003Z,5.62
2022-08-05T05:02:35.389Z,5.62
2022-08-05T05:02:51.687Z,5.62
2022-08-05T05:03:50.572Z,5.62
2022-08-05T05:04:51.379Z,5.62
2022-08-05T05:06:35.950Z,5.62
2022-08-05T05:06:57.417Z,5.62
2022-08-05T05:07:56.052Z,5.62
2022-08-05T05:08:50.525Z,5.62
2022-08-05T05:09:50.516Z,5.62
2022-08-05T05:10:56.191Z,5.62
2022-08-05T05:11:53.202Z,5.62
2022-08-05T05:12:50.715Z,5.62
2022-08-05T05:13:50.490Z,5.62
2022-08-05T05:14:51.433Z,5.62
2022-08-05T05:15:54.380Z,5.62
2022-08-05T05:16:50.594Z,5.62
2022-08-05T05:17:55.679Z,11.25
2022-08-05T05:19:16.465Z,11.25
2022-08-05T05:19:51.448Z,11.25
2022-08-05T05:20:50.522Z,11.25
2022-08-05T05:21:50.438Z,16.88
2022-08-05T05:22:51.440Z,16.88
2022-08-05T05:24:04.035Z,16.88
2022-08-05T05:24:58.677Z,11.25
2022-08-05T05:25:51.398Z,11.25
2022-08-05T05:26:51.914Z,11.25
2022-08-05T05:27:53.935Z,11.25
2022-08-05T05:28:51.387Z,5.62
2022-08-05T05:30:04.284Z,5.62
2022-08-05T05:30:51.352Z,5.62
2022-08-05T05:31:50.352Z,5.62
2022-08-05T05:32:50.338Z,5.62
2022-08-05T05:34:01.962Z,5.62
2022-08-05T05:34:52.309Z,5.62
2022-08-05T05:35:50.336Z,5.62
2022-08-05T05:36:51.225Z,5.62
2022-08-05T05:38:00.229Z,5.62
2022-08-05T05:38:51.319Z,5.62
2022-08-05T05:39:50.378Z,5.62
2022-08-05T05:40:51.331Z,5.62
2022-08-05T05:41:54.300Z,5.62
2022-08-05T05:42:50.266Z,5.62
2022-08-05T05:43:58.482Z,5.62
2022-08-05T05:44:51.266Z,11.25
2022-08-05T05:45:50.252Z,11.25
2022-08-05T05:46:50.237Z,11.25
2022-08-05T05:48:06.094Z,11.25
2022-08-05T05:48:51.223Z,16.88
2022-08-05T05:49:52.521Z,16.88
2022-08-05T05:50:51.208Z,22.50
2022-08-05T05:51:50.753Z,22.50
2022-08-05T05:52:50.190Z,22.50
2022-08-05T05:53:57.446Z,28.12
2022-08-05T05:54:51.348Z,33.75
2022-08-05T05:55:52.196Z,39.38
2022-08-05T05:56:51.160Z,39.38
2022-08-05T05:57:52.962Z,39.38
2022-08-05T05:58:50.326Z,39.38
2022-08-05T05:59:50.142Z,39.38
2022-08-05T06:00:50.130Z,39.38
2022-08-05T06:01:57.129Z,33.75
2022-08-05T06:02:51.117Z,33.75
2022-08-05T06:04:01.198Z,33.75
2022-08-05T06:04:51.364Z,33.75
2022-08-05T06:05:54.180Z,33.75
2022-08-05T06:06:51.087Z,33.75
2022-08-05T06:08:01.098Z,33.75
2022-08-05T06:08:51.073Z,28.12
2022-08-05T06:10:03.441Z,28.12
2022-08-05T06:10:52.873Z,33.75
2022-08-05T06:12:01.321Z,33.75
2022-08-05T06:12:51.045Z,45.00
2022-08-05T06:13:50.200Z,50.62
2022-08-05T06:14:50.036Z,56.25
2022-08-05T06:16:31.066Z,61.88
2022-08-05T06:16:51.010Z,61.88
2022-08-05T06:17:50.337Z,61.88
2022-08-05T06:18:49.996Z,67.50
2022-08-05T06:19:57.093Z,61.88
2022-08-05T06:20:49.980Z,56.25
2022-08-05T06:21:50.044Z,56.25
2022-08-05T06:22:49.961Z,61.88
2022-08-05T06:23:49.975Z,67.50
2022-08-05T06:24:49.961Z,61.88
2022-08-05T06:26:13.007Z,45.00
2022-08-05T06:26:52.303Z,45.00
2022-08-05T06:28:11.814Z,45.00
2022-08-05T06:28:50.916Z,56.25
2022-08-05T06:30:04.406Z,61.88
2022-08-05T06:30:50.898Z,61.88
2022-08-05T06:31:50.702Z,67.50
2022-08-05T06:32:50.802Z,73.12
2022-08-05T06:34:07.774Z,84.38
2022-08-05T06:34:53.518Z,90.00
2022-08-05T06:36:07.160Z,95.62
2022-08-05T06:36:57.218Z,95.62
2022-08-05T06:37:57.575Z,95.62
2022-08-05T06:38:50.857Z,95.62
2022-08-05T06:39:49.828Z,106.88
2022-08-05T06:40:49.826Z,129.38
2022-08-05T06:41:49.819Z,140.62
2022-08-05T06:42:51.595Z,146.25
2022-08-05T06:43:57.604Z,157.50
2022-08-05T06:44:50.795Z,168.75
2022-08-05T06:46:06.753Z,196.88
2022-08-05T06:46:51.274Z,225.00
2022-08-05T06:48:46.857Z,258.75
2022-08-05T06:48:56.695Z,292.50
2022-08-05T06:50:00.714Z,286.88
2022-08-05T06:50:50.750Z,281.25
2022-08-05T06:51:49.743Z,292.50
2022-08-05T06:53:04.047Z,275.62
2022-08-05T06:53:53.642Z,270.00
2022-08-05T06:54:52.110Z,270.00
2022-08-05T06:55:49.714Z,236.25
2022-08-05T06:56:54.393Z,213.75
2022-08-05T06:57:57.870Z,202.50
2022-08-05T06:58:50.697Z,225.00
2022-08-05T06:59:57.894Z,230.62
2022-08-05T07:00:49.692Z,213.75
2022-08-05T07:01:52.856Z,219.38
2022-08-05T07:02:53.942Z,236.25
2022-08-05T07:03:49.660Z,275.62
2022-08-05T07:04:49.658Z,298.12
2022-08-05T07:05:49.754Z,315.00
2022-08-05T07:06:50.425Z,281.25
2022-08-05T07:07:49.664Z,286.88
2022-08-05T07:08:54.503Z,286.88
2022-08-05T07:09:55.555Z,303.75
2022-08-05T07:10:53.234Z,309.38
2022-08-05T07:11:49.661Z,331.88
2022-08-05T07:12:49.579Z,303.75
2022-08-05T07:13:59.922Z,264.38
2022-08-05T07:14:50.603Z,241.88
2022-08-05T07:16:01.623Z,202.50
2022-08-05T07:18:08.589Z,168.75
2022-08-05T07:18:08.700Z,157.50
2022-08-05T07:18:50.533Z,157.50
2022-08-05T07:20:50.523Z,191.25
2022-08-05T07:22:00.421Z,208.12
2022-08-05T07:22:50.508Z,225.00
2022-08-05T07:23:50.590Z,196.88
2022-08-05T07:24:53.666Z,174.38
2022-08-05T07:25:55.316Z,163.12
2022-08-05T07:26:50.475Z,174.38
2022-08-05T07:28:00.800Z,191.25
2022-08-05T07:28:50.461Z,196.88
2022-08-05T07:30:23.806Z,213.75
2022-08-05T07:30:54.841Z,157.50
2022-08-05T07:31:55.013Z,151.88
2022-08-05T07:32:51.043Z,129.38
2022-08-05T07:33:49.424Z,112.50
2022-08-05T07:34:49.435Z,101.25
2022-08-05T07:36:02.606Z,101.25
2022-08-05T07:36:51.225Z,112.50
2022-08-05T07:37:49.391Z,135.00
2022-08-05T07:38:49.389Z,163.12
2022-08-05T07:40:26.043Z,196.88
2022-08-05T07:40:55.612Z,225.00
2022-08-05T07:42:14.193Z,264.38
2022-08-05T07:42:50.362Z,281.25
2022-08-05T07:43:49.349Z,309.38
2022-08-05T07:44:49.449Z,298.12
2022-08-05T07:45:58.074Z,348.75
2022-08-05T07:46:50.138Z,298.12
2022-08-05T07:47:49.319Z,270.00
2022-08-05T07:49:02.294Z,270.00
2022-08-05T07:49:54.505Z,219.38
2022-08-05T07:50:49.323Z,225.00
2022-08-05T07:51:54.473Z,236.25
2022-08-05T07:52:50.278Z,253.12
2022-08-05T07:53:50.267Z,270.00
2022-08-05T07:54:49.439Z,275.62
2022-08-05T07:56:06.732Z,241.88
2022-08-05T07:57:02.393Z,202.50
2022-08-05T07:57:58.908Z,196.88
2022-08-05T07:58:57.529Z,202.50
2022-08-05T07:59:50.227Z,213.75
2022-08-05T08:00:49.281Z,191.25
2022-08-05T08:01:57.659Z,180.00
2022-08-05T08:03:14.322Z,208.12
2022-08-05T08:03:51.344Z,247.50
2022-08-05T08:04:49.743Z,264.38
2022-08-05T08:05:49.749Z,258.75
2022-08-05T08:06:49.179Z,270.00
2022-08-05T08:07:59.849Z,264.38
2022-08-05T08:08:50.190Z,264.38
2022-08-05T08:09:49.151Z,281.25
2022-08-05T08:10:49.232Z,303.75
2022-08-05T08:11:59.012Z,320.62
2022-08-05T08:12:50.162Z,326.25
2022-08-05T08:14:00.436Z,348.75
2022-08-05T08:14:50.298Z,376.88
2022-08-05T08:16:35.376Z,455.62
2022-08-05T08:16:53.499Z,528.75
2022-08-05T08:17:52.499Z,472.50
2022-08-05T08:18:49.905Z,433.12
2022-08-05T08:20:42.981Z,410.62
2022-08-05T08:21:01.937Z,343.12
2022-08-05T08:21:50.073Z,348.75
2022-08-05T08:22:49.057Z,331.88
2022-08-05T08:24:02.727Z,326.25
2022-08-05T08:24:51.840Z,298.12
2022-08-05T08:26:02.164Z,315.00
2022-08-05T08:26:50.041Z,348.75
2022-08-05T08:27:51.138Z,376.88
2022-08-05T08:28:59.176Z,405.00
2022-08-05T08:30:06.116Z,421.88
2022-08-05T08:30:50.280Z,427.50
2022-08-05T08:31:48.994Z,427.50
2022-08-05T08:32:48.983Z,438.75
2022-08-05T08:33:51.569Z,483.75
2022-08-05T08:34:48.992Z,495.00
2022-08-05T08:35:52.493Z,489.38
2022-08-05T08:36:55.718Z,472.50
2022-08-05T08:37:53.513Z,444.38
2022-08-05T08:38:53.484Z,416.25
2022-08-05T08:39:49.625Z,427.50
2022-08-05T08:40:51.650Z,393.75
2022-08-05T08:41:50.945Z,348.75
2022-08-05T08:42:52.599Z,348.75
2022-08-05T08:45:16.389Z,444.38
2022-08-05T08:45:18.819Z,399.38
2022-08-05T08:45:49.900Z,421.88
2022-08-05T08:46:48.882Z,399.38
2022-08-05T08:48:10.461Z,315.00
2022-08-05T08:49:07.795Z,365.62
2022-08-05T08:50:14.269Z,455.62
2022-08-05T08:51:22.519Z,703.12
2022-08-05T08:52:06.098Z,511.88
2022-08-05T08:52:51.696Z,455.62
2022-08-05T08:53:48.829Z,708.75
2022-08-05T08:54:48.838Z,461.25
2022-08-05T08:56:04.943Z,736.88
2022-08-05T08:56:49.809Z,725.62
2022-08-05T08:57:58.245Z,770.62
2022-08-05T08:58:50.580Z,669.38
2022-08-05T08:59:48.950Z,1355.62
2022-08-05T09:00:48.831Z,928.12
2022-08-05T09:01:57.582Z,714.38
2022-08-05T09:02:49.768Z,1980.00
2022-08-05T09:03:55.263Z,1822.50
2022-08-05T09:05:16.331Z,1603.12
2022-08-05T09:06:08.971Z,1473.75
2022-08-05T09:06:49.883Z,1288.12
2022-08-05T09:07:58.078Z,646.88
2022-08-05T09:08:49.728Z,489.38
2022-08-05T09:09:48.710Z,714.38
2022-08-05T09:10:48.723Z,624.38
2022-08-05T09:11:53.108Z,630.00
2022-08-05T09:12:51.078Z,742.50
2022-08-05T09:14:10.113Z,1102.50
2022-08-05T09:14:56.315Z,731.25
2022-08-05T09:15:49.688Z,551.25
2022-08-05T09:16:49.106Z,450.00
2022-08-05T09:17:49.601Z,455.62
2022-08-05T09:18:48.652Z,725.62
2022-08-05T09:20:01.945Z,590.62
2022-08-05T09:20:49.691Z,388.12
2022-08-05T09:22:17.937Z,348.75
2022-08-05T09:22:51.794Z,354.38
2022-08-05T09:23:48.608Z,399.38
2022-08-05T09:24:48.621Z,630.00
2022-08-05T09:26:01.668Z,523.12
2022-08-05T09:26:51.928Z,455.62
2022-08-05T09:28:04.386Z,596.25
2022-08-05T09:28:49.661Z,641.25
2022-08-05T09:29:48.569Z,601.88
2022-08-05T09:30:49.445Z,748.12
2022-08-05T09:32:40.933Z,787.50
2022-08-05T09:32:49.569Z,798.75
2022-08-05T09:33:48.541Z,545.62
2022-08-05T09:34:48.535Z,438.75
2022-08-05T09:35:48.569Z,405.00
2022-08-05T09:36:56.100Z,405.00
2022-08-05T09:38:12.918Z,438.75
2022-08-05T09:38:49.506Z,500.62
2022-08-05T09:39:55.899Z,438.75
2022-08-05T09:40:52.147Z,450.00
2022-08-05T09:41:51.643Z,466.88
2022-08-05T09:42:49.479Z,500.62
2022-08-05T09:43:49.390Z,601.88
2022-08-05T09:44:49.414Z,770.62
2022-08-05T09:46:06.757Z,826.88
2022-08-05T09:46:51.840Z,506.25
2022-08-05T09:47:56.109Z,506.25
2022-08-05T09:48:55.409Z,495.00
2022-08-05T09:50:00.541Z,517.50
2022-08-05T09:50:49.435Z,551.25
2022-08-05T09:51:49.964Z,500.62
2022-08-05T09:52:48.407Z,438.75
2022-08-05T09:53:54.951Z,450.00
2022-08-05T09:54:49.388Z,517.50
2022-08-05T09:55:57.297Z,433.12
2022-08-05T09:56:51.828Z,607.50
2022-08-05T09:57:48.360Z,579.38
2022-08-05T09:58:50.259Z,635.62
2022-08-05T09:59:48.349Z,472.50
2022-08-05T10:00:48.357Z,247.50
2022-08-05T10:01:48.338Z,225.00
2022-08-05T10:02:49.425Z,292.50
2022-08-05T10:03:59.575Z,376.88
2022-08-05T10:04:49.572Z,438.75
2022-08-05T10:05:48.456Z,466.88
2022-08-05T10:06:49.788Z,528.75
2022-08-05T10:08:35.510Z,399.38
2022-08-05T10:08:50.349Z,281.25
2022-08-05T10:09:48.291Z,303.75
2022-08-05T10:10:50.411Z,410.62
2022-08-05T10:11:49.260Z,534.38
2022-08-05T10:12:49.457Z,371.25
2022-08-05T10:13:49.312Z,382.50
2022-08-05T10:14:48.239Z,410.62
2022-08-05T10:15:48.257Z,309.38
2022-08-05T10:16:52.823Z,315.00
2022-08-05T10:17:54.642Z,286.88
2022-08-05T10:18:49.211Z,236.25
2022-08-05T10:20:04.119Z,219.38
2022-08-05T10:20:49.235Z,236.25
2022-08-05T10:21:48.184Z,219.38
2022-08-05T10:22:50.757Z,168.75
2022-08-05T10:24:00.165Z,151.88
2022-08-05T10:24:49.173Z,168.75
2022-08-05T10:25:48.204Z,185.62
2022-08-05T10:26:52.224Z,196.88
2022-08-05T10:28:13.723Z,202.50
2022-08-05T10:28:49.165Z,202.50
2022-08-05T10:30:41.897Z,208.12
2022-08-05T10:32:48.001Z,213.75
2022-08-05T10:32:59.833Z,298.12
2022-08-05T10:33:01.150Z,236.25
2022-08-05T10:33:54.287Z,399.38
2022-08-05T10:34:49.102Z,517.50
2022-08-05T10:35:59.017Z,1125.00
2022-08-05T10:36:49.079Z,984.38
2022-08-05T10:37:48.068Z,1181.25
2022-08-05T10:38:48.067Z,888.75
2022-08-05T10:39:59.366Z,1085.62
2022-08-05T10:40:49.110Z,1080.00
2022-08-05T10:41:48.041Z,973.12
2022-08-05T10:42:48.085Z,742.50
2022-08-05T10:43:48.032Z,849.38
2022-08-05T10:44:48.022Z,1074.38
2022-08-05T10:45:48.014Z,978.75
2022-08-05T10:46:51.017Z,703.12
2022-08-05T10:48:27.565Z,500.62
2022-08-05T10:48:57.427Z,450.00
2022-08-05T10:50:31.615Z,461.25
2022-08-05T10:50:48.980Z,478.12
2022-08-05T10:51:48.680Z,472.50
2022-08-05T10:52:49.714Z,461.25
2022-08-05T10:53:47.953Z,478.12
2022-08-05T10:54:56.825Z,500.62
2022-08-05T10:56:05.420Z,585.00
2022-08-05T10:56:49.441Z,635.62
2022-08-05T10:57:51.295Z,736.88
2022-08-05T10:58:49.495Z,866.25
2022-08-05T11:00:02.640Z,843.75
2022-08-05T11:00:55.476Z,826.88
2022-08-05T11:01:54.928Z,748.12
2022-08-05T11:02:48.898Z,781.88
2022-08-05T11:03:47.901Z,900.00
2022-08-05T11:04:47.875Z,888.75
2022-08-05T11:05:47.882Z,810.00
2022-08-05T11:06:47.873Z,956.25
2022-08-05T11:08:04.619Z,1001.25
2022-08-05T11:08:48.854Z,967.50
2022-08-05T11:09:47.837Z,826.88
2022-08-05T11:10:50.414Z,781.88
2022-08-05T11:11:53.268Z,714.38
2022-08-05T11:12:54.244Z,798.75
2022-08-05T11:13:55.039Z,798.75
2022-08-05T11:15:11.406Z,866.25
2022-08-05T11:16:00.688Z,753.75
2022-08-05T11:16:57.260Z,731.25
2022-08-05T11:17:59.385Z,708.75
2022-08-05T11:18:48.833Z,781.88
2022-08-05T11:20:11.399Z,624.38
2022-08-05T11:20:48.782Z,804.38
2022-08-05T11:21:49.547Z,585.00
2022-08-05T11:22:50.066Z,511.88
2022-08-05T11:24:03.913Z,506.25
2022-08-05T11:24:50.682Z,551.25
2022-08-05T11:26:04.181Z,596.25
2022-08-05T11:26:49.672Z,495.00
2022-08-05T11:27:51.988Z,399.38
2022-08-05T11:28:48.714Z,360.00
2022-08-05T11:29:47.691Z,399.38
2022-08-05T11:30:47.704Z,545.62
2022-08-05T11:31:56.968Z,618.75
2022-08-05T11:32:48.690Z,669.38
2022-08-05T11:33:48.089Z,675.00
2022-08-05T11:34:54.216Z,601.88
2022-08-05T11:36:07.643Z,534.38
2022-08-05T11:36:52.926Z,495.00
2022-08-05T11:38:26.735Z,450.00
2022-08-05T11:38:51.122Z,444.38
2022-08-05T11:39:48.184Z,466.88
2022-08-05T11:40:47.637Z,461.25
2022-08-05T11:42:01.520Z,455.62
2022-08-05T11:42:48.637Z,483.75
2022-08-05T11:44:04.574Z,371.25
2022-08-05T11:44:53.786Z,303.75
2022-08-05T11:46:27.437Z,281.25
2022-08-05T11:47:09.897Z,264.38
2022-08-05T11:47:50.350Z,281.25
2022-08-05T11:48:48.555Z,264.38
2022-08-05T11:49:49.882Z,286.88
2022-08-05T11:50:47.544Z,343.12
2022-08-05T11:51:49.406Z,410.62
2022-08-05T11:52:49.002Z,360.00
2022-08-05T11:53:47.525Z,326.25
2022-08-05T11:54:48.509Z,320.62
2022-08-05T11:55:48.510Z,528.75
2022-08-05T11:56:50.250Z,646.88
2022-08-05T11:58:10.417Z,748.12
2022-08-05T11:58:53.146Z,675.00
2022-08-05T11:59:50.150Z,652.50
2022-08-05T12:00:47.474Z,663.75
2022-08-05T12:01:48.482Z,646.88
2022-08-05T12:02:47.532Z,641.25
2022-08-05T12:03:56.023Z,495.00
2022-08-05T12:04:59.020Z,596.25
2022-08-05T12:05:48.430Z,624.38
2022-08-05T12:06:48.692Z,596.25
2022-08-05T12:08:08.694Z,562.50
2022-08-05T12:08:50.627Z,618.75
2022-08-05T12:09:53.420Z,562.50
2022-08-05T12:10:48.717Z,658.12
2022-08-05T12:11:47.572Z,551.25
2022-08-05T12:12:59.536Z,596.25
2022-08-05T12:13:49.971Z,613.12
2022-08-05T12:14:47.458Z,720.00
2022-08-05T12:15:50.142Z,388.12
2022-08-05T12:16:47.401Z,331.88
2022-08-05T12:18:04.136Z,315.00
2022-08-05T12:18:49.593Z,258.75
2022-08-05T12:20:17.654Z,213.75
2022-08-05T12:20:48.325Z,185.62
2022-08-05T12:21:47.601Z,191.25
2022-08-05T12:22:47.312Z,196.88
2022-08-05T12:23:47.474Z,185.62
2022-08-05T12:24:49.584Z,163.12
2022-08-05T12:25:47.288Z,135.00
2022-08-05T12:26:47.296Z,118.12
2022-08-05T12:27:53.435Z,123.75
2022-08-05T12:28:48.268Z,140.62
2022-08-05T12:29:53.928Z,157.50
2022-08-05T12:30:47.247Z,180.00
2022-08-05T12:31:53.116Z,185.62
2022-08-05T12:32:50.343Z,168.75
2022-08-05T12:33:47.240Z,174.38
2022-08-05T12:34:47.221Z,247.50
2022-08-05T12:35:47.268Z,298.12
2022-08-05T12:36:47.214Z,303.75
2022-08-05T12:37:47.190Z,298.12
2022-08-05T12:38:47.187Z,286.88
2022-08-05T12:39:51.052Z,253.12
2022-08-05T12:40:47.180Z,247.50
2022-08-05T12:41:47.178Z,241.88
2022-08-05T12:42:47.152Z,230.62
2022-08-05T12:43:47.152Z,253.12
2022-08-05T12:44:47.505Z,292.50
2022-08-05T12:45:48.308Z,281.25
2022-08-05T12:46:47.134Z,315.00
2022-08-05T12:48:01.394Z,421.88
2022-08-05T12:48:48.106Z,500.62
2022-08-05T12:50:02.234Z,613.12
2022-08-05T12:50:48.088Z,624.38
2022-08-05T12:52:14.525Z,478.12